createdAt,value
2023-05-18T00:01:43.583Z,20.72
2023-05-18T00:04:10.144Z,20.70
2023-05-18T00:06:37.164Z,20.70
2023-05-18T00:09:03.578Z,20.70
2023-05-18T00:11:29.963Z,20.68
2023-05-18T00:13:56.572Z,20.68
2023-05-18T00:16:23.122Z,20.67
2023-05-18T00:18:49.498Z,20.66
2023-05-18T00:21:16.269Z,20.64
2023-05-18T00:23:49.382Z,20.64
2023-05-18T00:26:15.883Z,20.63
2023-05-18T00:28:42.271Z,20.63
2023-05-18T00:31:08.687Z,20.63
2023-05-18T00:33:35.065Z,20.61
2023-05-18T00:36:01.426Z,20.61
2023-05-18T00:38:27.777Z,20.62
2023-05-18T00:40:54.171Z,20.61
2023-05-18T00:43:20.739Z,20.60
2023-05-18T00:45:47.161Z,20.62
2023-05-18T00:48:13.609Z,20.62
2023-05-18T00:50:40.096Z,20.61
2023-05-18T00:53:06.470Z,20.60
2023-05-18T00:55:33.050Z,20.63
2023-05-18T00:58:02.260Z,20.61
2023-05-18T01:00:28.876Z,20.62
2023-05-18T01:02:55.532Z,20.62
2023-05-18T01:05:22.298Z,20.61
2023-05-18T01:07:48.823Z,20.62
2023-05-18T01:10:16.472Z,20.62
2023-05-18T01:12:48.732Z,20.62
2023-05-18T01:15:16.049Z,20.64
2023-05-18T01:18:00.764Z,20.65
2023-05-18T01:20:46.122Z,20.66
2023-05-18T01:23:15.473Z,20.67
2023-05-18T01:25:54.064Z,20.68
2023-05-18T01:28:21.068Z,20.70
2023-05-18T01:30:47.501Z,20.72
2023-05-18T01:33:14.320Z,20.72
2023-05-18T01:35:48.389Z,20.74
2023-05-18T01:38:16.256Z,20.75
2023-05-18T01:41:02.910Z,20.77
2023-05-18T01:43:33.280Z,20.77
2023-05-18T01:46:02.024Z,20.76
2023-05-18T01:48:28.419Z,20.77
2023-05-18T01:50:56.285Z,20.78
2023-05-18T01:53:28.013Z,20.77
2023-05-18T01:55:54.370Z,20.76
2023-05-18T01:58:20.723Z,20.74
2023-05-18T02:00:47.101Z,20.72
2023-05-18T02:03:14.035Z,20.71
2023-05-18T02:05:40.546Z,20.70
2023-05-18T02:08:06.961Z,20.71
2023-05-18T02:10:33.332Z,20.71
2023-05-18T02:12:59.758Z,20.73
2023-05-18T02:15:26.121Z,20.78
2023-05-18T02:17:52.518Z,20.82
2023-05-18T02:20:18.950Z,20.83
2023-05-18T02:22:46.330Z,20.83
2023-05-18T02:25:12.753Z,20.85
2023-05-18T02:27:39.195Z,20.84
2023-05-18T02:30:06.673Z,20.86
2023-05-18T02:32:33.113Z,20.86
2023-05-18T02:35:02.371Z,20.85
2023-05-18T02:37:28.833Z,20.84
2023-05-18T02:39:55.429Z,20.86
2023-05-18T02:42:21.926Z,20.85
2023-05-18T02:44:48.284Z,20.87
2023-05-18T02:47:14.665Z,20.86
2023-05-18T02:49:41.141Z,20.86
2023-05-18T02:52:07.789Z,20.85
2023-05-18T02:54:34.205Z,20.88
2023-05-18T02:57:02.299Z,20.87
2023-05-18T02:59:28.665Z,20.85
2023-05-18T03:01:55.141Z,20.84
2023-05-18T03:04:21.920Z,20.83
2023-05-18T03:06:52.883Z,20.81
2023-05-18T03:09:19.991Z,20.80
2023-05-18T03:11:46.366Z,20.79
2023-05-18T03:14:12.782Z,20.78
2023-05-18T03:16:39.611Z,20.77
2023-05-18T03:19:06.232Z,20.75
2023-05-18T03:21:36.073Z,20.74
2023-05-18T03:24:02.747Z,20.72
2023-05-18T03:26:32.101Z,20.72
2023-05-18T03:28:58.544Z,20.75
2023-05-18T03:31:25.271Z,20.75
2023-05-18T03:33:51.741Z,20.76
2023-05-18T03:36:18.105Z,20.77
2023-05-18T03:38:47.426Z,20.78
2023-05-18T03:41:14.197Z,20.79
2023-05-18T03:43:40.662Z,20.79
2023-05-18T03:46:07.041Z,20.80
2023-05-18T03:48:33.492Z,20.78
2023-05-18T03:50:59.846Z,20.79
2023-05-18T03:53:26.281Z,20.79
2023-05-18T03:55:52.647Z,20.79
2023-05-18T03:58:22.450Z,20.80
2023-05-18T04:00:51.000Z,20.80
2023-05-18T04:03:17.433Z,20.79
2023-05-18T04:05:44.348Z,20.78
2023-05-18T04:08:14.212Z,20.79
2023-05-18T04:10:43.568Z,20.81
2023-05-18T04:13:09.944Z,20.79
2023-05-18T04:15:36.473Z,20.81
2023-05-18T04:18:02.888Z,20.80
2023-05-18T04:20:29.711Z,20.80
2023-05-18T04:22:57.360Z,20.81
2023-05-18T04:25:30.296Z,20.84
2023-05-18T04:27:56.905Z,20.84
2023-05-18T04:30:23.445Z,20.81
2023-05-18T04:32:50.090Z,20.90
2023-05-18T04:35:16.744Z,20.93
2023-05-18T04:37:43.213Z,20.96
2023-05-18T04:40:17.234Z,21.01
2023-05-18T04:42:47.978Z,21.03
2023-05-18T04:45:15.897Z,21.05
2023-05-18T04:47:42.596Z,21.07
2023-05-18T04:50:09.089Z,21.09
2023-05-18T04:52:36.890Z,21.08
2023-05-18T04:55:03.470Z,21.12
2023-05-18T04:57:29.873Z,21.15
2023-05-18T04:59:56.238Z,21.14
2023-05-18T05:02:22.709Z,21.16
2023-05-18T05:04:49.239Z,21.16
2023-05-18T05:07:15.621Z,21.21
2023-05-18T05:09:42.035Z,21.21
2023-05-18T05:12:08.585Z,21.22
2023-05-18T05:14:34.950Z,21.24
2023-05-18T05:17:01.328Z,21.23
2023-05-18T05:19:27.715Z,21.22
2023-05-18T05:21:54.113Z,21.27
2023-05-18T05:24:20.477Z,21.35
2023-05-18T05:26:46.852Z,21.40
2023-05-18T05:29:13.239Z,21.42
2023-05-18T05:31:39.698Z,21.43
2023-05-18T05:34:06.266Z,21.47
2023-05-18T05:36:33.816Z,21.50
2023-05-18T05:39:00.456Z,21.50
2023-05-18T05:41:27.009Z,21.52
2023-05-18T05:43:53.436Z,21.53
2023-05-18T05:46:19.908Z,21.56
2023-05-18T05:48:46.279Z,21.57
2023-05-18T05:51:12.716Z,21.60
2023-05-18T05:53:39.120Z,21.63
2023-05-18T05:56:07.839Z,21.65
2023-05-18T05:58:34.250Z,21.66
2023-05-18T06:01:01.252Z,21.70
2023-05-18T06:03:29.360Z,21.75
2023-05-18T06:05:56.388Z,21.77
2023-05-18T06:08:24.341Z,21.80
2023-05-18T06:10:51.234Z,21.85
2023-05-18T06:13:17.607Z,21.87
2023-05-18T06:15:43.982Z,21.89
2023-05-18T06:18:12.194Z,21.90
2023-05-18T06:20:39.889Z,21.90
2023-05-18T06:23:06.255Z,21.91
2023-05-18T06:25:32.864Z,22.00
2023-05-18T06:27:59.428Z,22.03
2023-05-18T06:30:25.791Z,22.02
2023-05-18T06:32:52.268Z,21.99
2023-05-18T06:35:18.669Z,22.01
2023-05-18T06:37:46.929Z,22.03
2023-05-18T06:40:13.719Z,22.05
2023-05-18T06:42:40.083Z,22.13
2023-05-18T06:45:06.762Z,22.18
2023-05-18T06:47:33.205Z,22.32
2023-05-18T06:49:59.592Z,22.38
2023-05-18T06:52:27.146Z,22.39
2023-05-18T06:54:53.712Z,22.45
2023-05-18T06:57:20.085Z,22.45
2023-05-18T06:59:50.464Z,22.47
2023-05-18T07:02:16.902Z,22.51
2023-05-18T07:04:43.276Z,22.52
2023-05-18T07:07:09.649Z,22.47
2023-05-18T07:09:37.036Z,22.25
2023-05-18T07:12:03.452Z,22.01
2023-05-18T07:14:29.822Z,22.18
2023-05-18T07:16:56.181Z,22.29
2023-05-18T07:19:22.773Z,22.37
2023-05-18T07:21:49.356Z,22.42
2023-05-18T07:24:16.006Z,22.44
2023-05-18T07:26:42.462Z,22.45
2023-05-18T07:29:08.929Z,21.50
2023-05-18T07:31:38.990Z,20.50
2023-05-18T07:34:05.640Z,20.15
2023-05-18T07:36:32.080Z,19.65
2023-05-18T07:38:59.156Z,19.73
2023-05-18T07:41:26.167Z,19.89
2023-05-18T07:43:52.654Z,20.73
2023-05-18T07:46:19.149Z,21.56
2023-05-18T07:48:46.236Z,22.00
2023-05-18T07:51:12.621Z,21.78
2023-05-18T07:53:39.515Z,21.58
2023-05-18T07:56:05.914Z,21.50
2023-05-18T07:58:32.278Z,21.49
2023-05-18T08:00:58.675Z,21.42
2023-05-18T08:03:25.138Z,21.38
2023-05-18T08:05:51.580Z,21.47
2023-05-18T08:08:18.717Z,21.57
2023-05-18T08:10:45.132Z,21.61
2023-05-18T08:13:11.747Z,20.14
2023-05-18T08:15:39.036Z,19.52
2023-05-18T08:18:05.514Z,19.74
2023-05-18T08:20:32.344Z,19.57
2023-05-18T08:22:58.748Z,19.41
2023-05-18T08:25:25.132Z,19.53
2023-05-18T08:27:51.490Z,19.58
2023-05-18T08:30:21.397Z,19.38
2023-05-18T08:32:48.105Z,19.88
2023-05-18T08:35:14.498Z,20.53
2023-05-18T08:37:40.950Z,20.90
2023-05-18T08:40:08.084Z,21.11
2023-05-18T08:42:48.559Z,21.24
2023-05-18T08:45:23.931Z,21.38
2023-05-18T08:47:50.394Z,21.46
2023-05-18T08:50:18.114Z,21.52
2023-05-18T08:52:47.026Z,21.62
2023-05-18T08:55:13.630Z,21.67
2023-05-18T08:57:40.028Z,21.66
2023-05-18T09:00:07.930Z,21.73
2023-05-18T09:02:34.337Z,21.74
2023-05-18T09:05:00.746Z,21.76
2023-05-18T09:07:27.968Z,21.86
2023-05-18T09:09:54.685Z,21.86
2023-05-18T09:12:24.231Z,21.86
2023-05-18T09:14:51.080Z,21.93
2023-05-18T09:17:17.452Z,21.94
2023-05-18T09:19:43.805Z,21.97
2023-05-18T09:22:10.175Z,21.94
2023-05-18T09:24:37.930Z,21.93
2023-05-18T09:27:04.881Z,21.95
2023-05-18T09:29:32.960Z,21.97
2023-05-18T09:32:04.616Z,21.98
2023-05-18T09:34:41.432Z,22.00
2023-05-18T09:37:07.932Z,22.01
2023-05-18T09:39:34.311Z,21.98
2023-05-18T09:42:00.662Z,21.91
2023-05-18T09:44:36.056Z,21.86
2023-05-18T09:47:02.791Z,21.80
2023-05-18T09:49:29.547Z,21.82
2023-05-18T09:51:56.720Z,21.85
2023-05-18T09:54:24.437Z,21.93
2023-05-18T09:57:02.331Z,22.00
2023-05-18T09:59:36.605Z,21.98
2023-05-18T10:02:05.932Z,21.90
2023-05-18T10:04:36.109Z,21.90
2023-05-18T10:07:03.211Z,21.94
2023-05-18T10:09:29.631Z,21.99
2023-05-18T10:11:56.048Z,21.99
2023-05-18T10:14:28.155Z,21.99
2023-05-18T10:17:03.505Z,21.97
2023-05-18T10:19:34.307Z,21.96
2023-05-18T10:22:01.973Z,21.95
2023-05-18T10:24:28.419Z,21.90
2023-05-18T10:26:57.100Z,21.91
2023-05-18T10:29:24.036Z,21.92
2023-05-18T10:31:50.629Z,21.89
2023-05-18T10:34:18.505Z,21.90
2023-05-18T10:36:44.861Z,21.91
2023-05-18T10:39:11.245Z,21.82
2023-05-18T10:41:37.610Z,21.73
2023-05-18T10:44:04.250Z,21.69
2023-05-18T10:46:30.899Z,21.68
2023-05-18T10:48:57.704Z,21.69
2023-05-18T10:51:24.050Z,21.66
2023-05-18T10:53:50.430Z,21.65
2023-05-18T10:56:16.842Z,21.67
2023-05-18T10:58:43.237Z,21.67
2023-05-18T11:01:09.623Z,21.60
2023-05-18T11:03:36.008Z,21.56
2023-05-18T11:06:06.795Z,21.58
2023-05-18T11:08:33.195Z,21.60
2023-05-18T11:11:07.511Z,21.56
2023-05-18T11:13:34.612Z,21.57
2023-05-18T11:16:07.737Z,21.70
2023-05-18T11:18:34.978Z,21.66
2023-05-18T11:21:01.588Z,21.67
2023-05-18T11:23:33.699Z,21.67
2023-05-18T11:26:02.990Z,21.58
2023-05-18T11:28:29.398Z,21.59
2023-05-18T11:30:55.881Z,21.59
2023-05-18T11:33:23.306Z,21.56
2023-05-18T11:35:55.910Z,21.59
2023-05-18T11:38:22.494Z,21.63
2023-05-18T11:40:49.464Z,21.65
2023-05-18T11:43:25.062Z,21.69
2023-05-18T11:45:59.135Z,21.66
2023-05-18T11:48:26.692Z,21.63
2023-05-18T11:50:53.623Z,21.62
2023-05-18T11:53:20.009Z,21.57
2023-05-18T11:55:46.638Z,21.57
2023-05-18T11:58:18.880Z,21.56
2023-05-18T12:00:45.240Z,21.61
2023-05-18T12:03:11.651Z,21.56
2023-05-18T12:05:38.047Z,21.61
2023-05-18T12:08:04.505Z,21.65
2023-05-18T12:10:31.148Z,21.52
2023-05-18T12:12:57.680Z,21.53
2023-05-18T12:15:24.273Z,21.58
2023-05-18T12:17:51.014Z,21.51
2023-05-18T12:20:21.050Z,21.57
2023-05-18T12:22:50.215Z,21.51
2023-05-18T12:25:16.664Z,21.59
2023-05-18T12:27:47.980Z,21.66
2023-05-18T12:30:20.889Z,21.66
2023-05-18T12:32:48.128Z,21.59
2023-05-18T12:35:14.533Z,21.53
2023-05-18T12:37:45.468Z,21.45
2023-05-18T12:40:16.326Z,21.49
2023-05-18T12:42:55.382Z,21.50
2023-05-18T12:45:22.689Z,21.48
2023-05-18T12:47:54.194Z,21.36
2023-05-18T12:50:21.070Z,21.51
2023-05-18T12:52:47.993Z,21.54
2023-05-18T12:55:21.894Z,21.48
2023-05-18T12:57:58.555Z,21.35
2023-05-18T13:00:24.955Z,21.36
2023-05-18T13:02:51.549Z,21.26
2023-05-18T13:05:17.985Z,21.32
2023-05-18T13:07:44.739Z,21.33
2023-05-18T13:10:11.780Z,21.29
2023-05-18T13:12:38.649Z,21.27
2023-05-18T13:15:10.063Z,21.28
2023-05-18T13:17:37.096Z,21.24
2023-05-18T13:20:04.596Z,21.19
2023-05-18T13:22:31.247Z,21.15
2023-05-18T13:24:57.623Z,21.15
2023-05-18T13:27:23.984Z,21.19
2023-05-18T13:29:51.237Z,21.17
2023-05-18T13:32:17.588Z,21.18
2023-05-18T13:34:43.947Z,21.19
2023-05-18T13:37:11.948Z,21.18
2023-05-18T13:39:38.816Z,21.18
2023-05-18T13:42:05.232Z,21.14
2023-05-18T13:44:31.623Z,21.16
2023-05-18T13:46:58.002Z,21.06
2023-05-18T13:49:24.357Z,21.04
2023-05-18T13:51:50.794Z,21.07
2023-05-18T13:54:17.153Z,21.08
2023-05-18T13:56:43.528Z,21.04
2023-05-18T13:59:09.930Z,20.98
2023-05-18T14:01:36.558Z,21.02
2023-05-18T14:04:02.959Z,20.98
2023-05-18T14:06:29.324Z,20.96
2023-05-18T14:08:55.690Z,20.95
2023-05-18T14:11:22.072Z,20.96
2023-05-18T14:13:48.428Z,20.96
2023-05-18T14:16:14.953Z,21.02
2023-05-18T14:18:41.362Z,21.04
2023-05-18T14:21:07.794Z,21.08
2023-05-18T14:23:34.147Z,21.06
2023-05-18T14:26:00.504Z,20.97
2023-05-18T14:28:26.865Z,21.00
2023-05-18T14:30:53.260Z,20.96
2023-05-18T14:33:19.647Z,20.96
2023-05-18T14:35:46.038Z,20.95
2023-05-18T14:38:12.399Z,20.98
2023-05-18T14:40:38.761Z,20.93
2023-05-18T14:43:05.133Z,20.95
2023-05-18T14:45:31.505Z,20.91
2023-05-18T14:47:57.932Z,20.96
2023-05-18T14:50:24.334Z,20.96
2023-05-18T14:52:52.126Z,20.96
2023-05-18T14:55:18.496Z,20.92
2023-05-18T14:57:44.897Z,20.93
2023-05-18T15:00:11.599Z,20.92
2023-05-18T15:02:38.122Z,20.89
2023-05-18T15:05:04.672Z,20.88
2023-05-18T15:07:31.131Z,20.89
2023-05-18T15:09:57.509Z,20.88
2023-05-18T15:12:23.887Z,20.87
2023-05-18T15:14:50.634Z,20.82
2023-05-18T15:17:17.911Z,20.82
2023-05-18T15:19:44.339Z,20.80
2023-05-18T15:22:10.694Z,20.78
2023-05-18T15:24:37.044Z,20.74
2023-05-18T15:27:03.537Z,20.78
2023-05-18T15:29:30.008Z,20.78
2023-05-18T15:31:56.437Z,20.72
2023-05-18T15:34:22.836Z,20.71
2023-05-18T15:36:49.961Z,20.69
2023-05-18T15:39:16.339Z,20.68
2023-05-18T15:41:42.703Z,20.69
2023-05-18T15:44:09.080Z,20.68
2023-05-18T15:46:35.833Z,20.66
2023-05-18T15:49:02.408Z,20.70
2023-05-18T15:51:28.789Z,20.63
2023-05-18T15:53:55.217Z,20.62
2023-05-18T15:56:21.972Z,20.62
2023-05-18T15:58:48.354Z,20.58
2023-05-18T16:01:14.749Z,20.56
2023-05-18T16:03:41.352Z,20.57
2023-05-18T16:06:07.888Z,20.53
2023-05-18T16:08:34.262Z,20.52
2023-05-18T16:11:02.207Z,20.49
2023-05-18T16:13:28.575Z,20.45
2023-05-18T16:15:54.927Z,20.47
2023-05-18T16:18:21.322Z,20.46
2023-05-18T16:20:47.693Z,20.46
2023-05-18T16:23:14.042Z,20.47
2023-05-18T16:25:40.484Z,20.48
2023-05-18T16:28:06.842Z,20.49
2023-05-18T16:30:33.410Z,20.55
2023-05-18T16:33:00.454Z,20.58
2023-05-18T16:35:27.181Z,20.67
2023-05-18T16:37:53.569Z,20.73
2023-05-18T16:40:19.988Z,20.79
2023-05-18T16:42:48.817Z,20.83
2023-05-18T16:45:15.217Z,20.85
2023-05-18T16:47:41.865Z,20.86
2023-05-18T16:50:08.516Z,20.90
2023-05-18T16:52:34.857Z,20.90
2023-05-18T16:55:01.228Z,20.92
2023-05-18T16:57:27.814Z,20.87
2023-05-18T16:59:54.212Z,20.88
2023-05-18T17:02:20.884Z,20.91
2023-05-18T17:04:49.592Z,20.87
2023-05-18T17:07:16.244Z,20.85
2023-05-18T17:09:42.940Z,20.84
2023-05-18T17:12:09.430Z,20.86
2023-05-18T17:14:35.786Z,20.85
2023-05-18T17:17:02.157Z,20.82
2023-05-18T17:19:28.587Z,20.83
2023-05-18T17:21:55.073Z,20.86
2023-05-18T17:24:21.690Z,20.85
2023-05-18T17:26:48.136Z,20.84
2023-05-18T17:29:16.898Z,20.82
2023-05-18T17:31:45.833Z,20.81
2023-05-18T17:34:12.263Z,20.81
2023-05-18T17:36:38.663Z,20.79
2023-05-18T17:39:05.067Z,20.79
2023-05-18T17:41:32.265Z,20.81
2023-05-18T17:43:58.638Z,20.81
2023-05-18T17:46:25.112Z,20.79
2023-05-18T17:48:51.607Z,20.79
2023-05-18T17:51:17.979Z,20.79
2023-05-18T17:53:44.352Z,20.80
2023-05-18T17:56:10.907Z,20.80
2023-05-18T17:58:39.183Z,20.76
2023-05-18T18:01:07.421Z,20.74
2023-05-18T18:03:34.044Z,20.75
2023-05-18T18:06:00.758Z,20.75
2023-05-18T18:08:29.193Z,20.75
2023-05-18T18:10:56.223Z,20.77
2023-05-18T18:13:22.829Z,20.79
2023-05-18T18:15:49.423Z,20.79
2023-05-18T18:18:16.840Z,20.77
2023-05-18T18:20:43.293Z,20.77
2023-05-18T18:23:09.834Z,20.77
2023-05-18T18:25:36.210Z,20.76
2023-05-18T18:28:02.574Z,20.75
2023-05-18T18:30:29.048Z,20.73
2023-05-18T18:32:55.545Z,20.75
2023-05-18T18:35:21.927Z,20.73
2023-05-18T18:37:48.349Z,20.73
2023-05-18T18:40:14.922Z,20.74
2023-05-18T18:42:41.352Z,20.75
2023-05-18T18:45:07.899Z,20.69
2023-05-18T18:47:34.303Z,20.67
2023-05-18T18:50:00.783Z,20.66
2023-05-18T18:52:27.136Z,20.66
2023-05-18T18:54:53.808Z,20.67
2023-05-18T18:57:21.879Z,20.64
2023-05-18T18:59:48.281Z,20.63
2023-05-18T19:02:15.309Z,20.64
2023-05-18T19:04:41.814Z,20.67
2023-05-18T19:07:08.295Z,20.70
2023-05-18T19:09:36.094Z,20.71
2023-05-18T19:12:02.627Z,20.72
2023-05-18T19:14:29.020Z,20.71
2023-05-18T19:16:56.084Z,20.71
2023-05-18T19:19:22.607Z,20.71
2023-05-18T19:21:49.119Z,20.71
2023-05-18T19:24:15.494Z,20.69
2023-05-18T19:26:41.882Z,20.70
2023-05-18T19:29:08.234Z,20.70
2023-05-18T19:31:35.870Z,20.71
2023-05-18T19:34:02.397Z,20.69
2023-05-18T19:36:28.756Z,20.67
2023-05-18T19:38:55.788Z,20.68
2023-05-18T19:41:24.422Z,20.67
2023-05-18T19:43:51.055Z,20.67
2023-05-18T19:46:17.491Z,20.64
2023-05-18T19:48:43.898Z,20.64
2023-05-18T19:51:10.754Z,20.65
2023-05-18T19:53:37.196Z,20.63
2023-05-18T19:56:03.574Z,20.65
2023-05-18T19:58:29.933Z,20.63
2023-05-18T20:00:57.361Z,20.62
2023-05-18T20:03:23.759Z,20.63
2023-05-18T20:05:50.166Z,20.62
2023-05-18T20:08:16.610Z,20.59
2023-05-18T20:10:44.397Z,20.57
2023-05-18T20:13:10.992Z,20.55
2023-05-18T20:15:37.362Z,20.54
2023-05-18T20:18:06.488Z,20.51
2023-05-18T20:20:35.524Z,20.49
2023-05-18T20:23:02.005Z,20.46
2023-05-18T20:25:28.375Z,20.42
2023-05-18T20:27:56.679Z,20.41
2023-05-18T20:30:23.113Z,20.40
2023-05-18T20:32:49.922Z,20.37
2023-05-18T20:35:16.988Z,20.32
2023-05-18T20:37:43.950Z,20.45
2023-05-18T20:40:10.357Z,20.47
2023-05-18T20:42:40.464Z,20.54
2023-05-18T20:45:07.461Z,20.55
2023-05-18T20:47:34.444Z,20.57
2023-05-18T20:50:02.099Z,20.58
2023-05-18T20:52:28.575Z,20.63
2023-05-18T20:54:55.129Z,20.76
2023-05-18T20:57:21.512Z,20.85
2023-05-18T20:59:47.947Z,20.96
2023-05-18T21:02:14.307Z,21.07
2023-05-18T21:04:40.664Z,21.26
2023-05-18T21:07:07.034Z,21.49
2023-05-18T21:09:34.437Z,21.67
2023-05-18T21:12:00.794Z,21.86
2023-05-18T21:14:27.435Z,21.99
2023-05-18T21:16:53.805Z,22.14
2023-05-18T21:19:20.471Z,22.32
2023-05-18T21:21:47.080Z,22.43
2023-05-18T21:24:13.485Z,22.42
2023-05-18T21:26:41.047Z,22.44
2023-05-18T21:29:09.792Z,22.44
2023-05-18T21:31:36.223Z,22.44
2023-05-18T21:34:02.634Z,22.37
2023-05-18T21:36:34.830Z,22.37
2023-05-18T21:39:01.741Z,22.29
2023-05-18T21:41:28.169Z,22.24
2023-05-18T21:43:54.577Z,22.15
2023-05-18T21:46:21.086Z,22.16
2023-05-18T21:48:47.533Z,22.16
2023-05-18T21:51:13.999Z,22.15
2023-05-18T21:53:40.559Z,22.13
2023-05-18T21:56:06.914Z,22.05
2023-05-18T21:58:33.279Z,22.05
2023-05-18T22:00:59.680Z,22.01
2023-05-18T22:03:26.118Z,21.98
2023-05-18T22:05:52.692Z,21.94
2023-05-18T22:08:20.009Z,21.92
2023-05-18T22:10:46.550Z,21.90
2023-05-18T22:13:12.957Z,21.90
2023-05-18T22:15:40.259Z,21.86
2023-05-18T22:18:06.852Z,21.77
2023-05-18T22:20:33.925Z,21.77
2023-05-18T22:23:00.568Z,21.71
2023-05-18T22:25:26.943Z,21.68
2023-05-18T22:27:53.380Z,21.65
2023-05-18T22:30:27.772Z,21.62
2023-05-18T22:32:54.423Z,21.62
2023-05-18T22:35:20.950Z,21.58
2023-05-18T22:37:47.597Z,21.56
2023-05-18T22:40:13.974Z,21.53
2023-05-18T22:42:40.746Z,21.51
2023-05-18T22:45:07.429Z,21.50
2023-05-18T22:47:33.969Z,21.49
2023-05-18T22:50:00.426Z,21.46
2023-05-18T22:52:27.902Z,21.44
2023-05-18T22:54:54.271Z,21.42
2023-05-18T22:57:20.624Z,21.39
2023-05-18T22:59:46.974Z,21.39
2023-05-18T23:02:13.706Z,21.36
2023-05-18T23:04:40.216Z,21.35
2023-05-18T23:07:07.295Z,21.33
2023-05-18T23:09:33.797Z,21.32
2023-05-18T23:12:01.007Z,21.30
2023-05-18T23:14:31.067Z,21.26
2023-05-18T23:16:58.421Z,21.27
2023-05-18T23:19:26.591Z,21.25
2023-05-18T23:21:53.172Z,21.23
2023-05-18T23:24:19.528Z,21.22
2023-05-18T23:26:46.029Z,21.20
2023-05-18T23:29:12.695Z,21.18
2023-05-18T23:31:39.083Z,21.17
2023-05-18T23:34:05.640Z,21.17
2023-05-18T23:36:34.795Z,21.15
2023-05-18T23:39:01.415Z,21.14
2023-05-18T23:41:28.646Z,21.13
2023-05-18T23:43:55.614Z,21.14
2023-05-18T23:46:22.526Z,21.13
2023-05-18T23:48:49.174Z,21.12
2023-05-18T23:51:16.789Z,21.08
2023-05-18T23:53:46.280Z,21.06
2023-05-18T23:56:12.822Z,21.05
2023-05-18T23:58:44.355Z,21.02
